Federal Leda — V7FL3 — position and weather

sailwx.info

Track history (hours):
 
Tides and Currents Weather Stations Pressure Air Temp Water Temp Dewpoint Dewpoint Depression Visibility Wind Speed Wind Dir Waves Ship Positions

Federal Leda

Last reported at 2017-Nov-10 13:05 UTC. Time now 2017-Dec-11 20:41 UTC.
Position N 49°37' W 004°35'.
Warning: this ship's position is 31 days out of date.

Length 200 m; draft 6.9 m.

Type: Cargo ship. MMSI: 538005611.

Date/timePositionNaut miles runAvg speedWind from/ knotsBaromVisibWave heightAir tempDewpointWater temp
2017-Nov-10 13:05N 49°37' W 004°35'3211.3
2017-Nov-10 10:13N 49°47' W 003°48'812.1
2017-Nov-10 09:35N 49°49' W 003°36'112.1
2017-Nov-10 09:29N 49°49' W 003°35'612.3
2017-Nov-10 09:00N 49°51' W 003°26'612.6
2017-Nov-10 08:30N 49°53' W 003°17'613.0
2017-Nov-10 08:01N 49°55' W 003°07'713.4
2017-Nov-10 07:30N 49°58' W 002°57'713.9
2017-Nov-10 07:00N 50°00' W 002°47'714.5
2017-Nov-10 06:30N 50°03' W 002°37'2015.4
2017-Nov-10 05:14N 50°09' W 002°08'415.6
2017-Nov-10 05:00N 50°10' W 002°02'815.4
2017-Nov-10 04:31N 50°12' W 001°51'714.9
2017-Nov-10 04:00N 50°13' W 001°39'714.4
2017-Nov-10 03:30N 50°15' W 001°28'713.6
2017-Nov-10 03:00N 50°17' W 001°18'3511.9
2017-Nov-10 00:04N 50°26' W 000°25'111.9
2017-Nov-09 23:59N 50°27' W 000°24'612.2
2017-Nov-09 23:31N 50°28' W 000°15'612.8
2017-Nov-09 23:01N 50°30' W 000°05'713.3
2017-Nov-09 22:30N 50°31' E 000°05'714.1
2017-Nov-09 22:00N 50°33' E 000°16'714.6
2017-Nov-09 21:31N 50°35' E 000°27'714.9
2017-Nov-09 21:01N 50°38' E 000°37'815.5
2017-Nov-09 20:31N 50°43' E 000°47'815.5
2017-Nov-09 20:01N 50°48' E 000°57'815.0
2017-Nov-09 19:31N 50°53' E 001°06'714.5
2017-Nov-09 19:01N 50°57' E 001°14'714.0
2017-Nov-09 18:30N 51°02' E 001°23'713.2
2017-Nov-09 18:00N 51°06' E 001°30'612.1
2017-Nov-09 17:30N 51°10' E 001°38'611.8
2017-Nov-09 17:00N 51°14' E 001°45'611.9
2017-Nov-09 16:30N 51°19' E 001°50'612.1
2017-Nov-09 16:00N 51°24' E 001°56'612.6
2017-Nov-09 15:30N 51°29' E 002°02'713.2
2017-Nov-09 15:00N 51°34' E 002°09'713.7
2017-Nov-09 14:30N 51°39' E 002°16'6515.0
2017-Nov-09 10:09N 52°30' E 003°22'213.8
2017-Nov-09 10:00N 52°32' E 003°24'813.7
2017-Nov-09 09:26N 52°38' E 003°32'613.3
2017-Nov-09 08:59N 52°42' E 003°38'713.1
2017-Nov-09 08:29N 52°48' E 003°45'612.8
2017-Nov-09 08:00N 52°53' E 003°51'612.8
2017-Nov-09 07:30N 52°57' E 003°59'612.7
2017-Nov-09 07:00N 53°01' E 004°07'712.8
2017-Nov-09 06:29N 53°05' E 004°15'712.9
2017-Nov-09 05:57N 53°10' E 004°24'1413.9
2017-Nov-09 04:56N 53°23' E 004°33'3914.3
2017-Nov-09 02:13N 53°40' E 005°31'8312.6
2017-Nov-08 19:39N 53°53' E 007°50'210.5
2017-Nov-08 19:30N 53°52' E 007°52'714.2
2017-Nov-08 19:00N 53°50' E 008°04'815.5
2017-Nov-08 18:30N 53°45' E 008°13'815.8
2017-Nov-08 18:00N 53°40' E 008°23'714.9
2017-Nov-08 17:30N 53°34' E 008°32'4 7.3
2017-Nov-08 17:00N 53°31' E 008°32'510.7
2017-Nov-08 16:30N 53°26' E 008°30'4 8.6
2017-Nov-08 16:01N 53°21' E 008°30'0 0.3
2017-Nov-08 15:30N 53°21' E 008°30'0 0.0
2017-Nov-08 15:00N 53°21' E 008°30'0 0.0
2017-Nov-08 14:27N 53°21' E 008°30'0 0.0
2017-Nov-08 14:00N 53°21' E 008°30'0 0.0
2017-Nov-08 13:30N 53°21' E 008°30'0 0.0
2017-Nov-08 13:00N 53°21' E 008°30'0 0.0
2017-Nov-08 12:30N 53°21' E 008°30'0 0.0
2017-Nov-08 12:00N 53°21' E 008°30'0 0.0
2017-Nov-08 11:27N 53°21' E 008°30'0 0.0
2017-Nov-08 11:00N 53°21' E 008°30'0 0.0
2017-Nov-08 10:30N 53°21' E 008°30'0 0.0
2017-Nov-08 10:00N 53°21' E 008°30'0 0.0
2017-Nov-08 09:30N 53°21' E 008°30'0 0.0
2017-Nov-08 09:00N 53°21' E 008°30'0 0.0
2017-Nov-08 08:29N 53°21' E 008°30'0 0.0
2017-Nov-08 07:59N 53°21' E 008°30'0 0.0
2017-Nov-08 07:29N 53°21' E 008°30'0 0.0
2017-Nov-08 06:59N 53°21' E 008°30'0 0.0
2017-Nov-08 06:29N 53°21' E 008°30'0 0.0
2017-Nov-08 05:59N 53°21' E 008°30'0 0.0
2017-Nov-08 05:29N 53°21' E 008°30'0 0.0
2017-Nov-08 04:59N 53°21' E 008°30'0 0.0
2017-Nov-08 04:29N 53°21' E 008°30'0 0.0
2017-Nov-08 03:59N 53°21' E 008°30'0 0.0
2017-Nov-08 03:29N 53°21' E 008°30'0 0.0
2017-Nov-08 02:59N 53°21' E 008°30'0 0.0
2017-Nov-08 02:26N 53°21' E 008°30'0 0.0
2017-Nov-08 01:59N 53°21' E 008°30'0 0.0
2017-Nov-08 01:29N 53°21' E 008°30'0 0.0
2017-Nov-08 00:59N 53°21' E 008°30'0 0.0
2017-Nov-08 00:29N 53°21' E 008°30'0 0.0
2017-Nov-07 23:59N 53°21' E 008°30'0 0.0
2017-Nov-07 23:29N 53°21' E 008°30'0 0.0
2017-Nov-07 22:59N 53°21' E 008°30'0 0.0
2017-Nov-07 22:29N 53°21' E 008°30'0 0.0
2017-Nov-07 21:59N 53°21' E 008°30'0 0.0
2017-Nov-07 21:29N 53°21' E 008°30'0 0.0
2017-Nov-07 20:59N 53°21' E 008°30'0 0.0
2017-Nov-07 20:29N 53°21' E 008°30'0 0.0
2017-Nov-07 19:59N 53°21' E 008°30'0 0.0
2017-Nov-07 19:29N 53°21' E 008°30'0 0.0
2017-Nov-07 18:59N 53°21' E 008°30'0 0.0
2017-Nov-07 18:29N 53°21' E 008°30'0 0.0
2017-Nov-07 17:59N 53°21' E 008°30'0 0.0
2017-Nov-07 17:29N 53°21' E 008°30'0 0.0
2017-Nov-07 16:59N 53°21' E 008°30'0 0.0
2017-Nov-07 16:26N 53°21' E 008°30'0 0.0
2017-Nov-07 15:59N 53°21' E 008°30'0 0.0
2017-Nov-07 15:20N 53°21' E 008°30'0 0.0
2017-Nov-07 14:59N 53°21' E 008°30'0 0.0
2017-Nov-07 14:23N 53°21' E 008°30'0 0.0
2017-Nov-07 13:59N 53°21' E 008°30'0 0.0
2017-Nov-07 13:29N 53°21' E 008°30'0 0.0
2017-Nov-07 12:59N 53°21' E 008°30'0 0.0
2017-Nov-07 12:29N 53°21' E 008°30'0 0.0
2017-Nov-07 11:59N 53°21' E 008°30'0 0.0
2017-Nov-07 11:29N 53°21' E 008°30'0 0.0
2017-Nov-07 10:59N 53°21' E 008°30'0 0.0
2017-Nov-07 10:29N 53°21' E 008°30'0 0.0
2017-Nov-07 09:59N 53°21' E 008°30'0 0.0
2017-Nov-07 09:29N 53°21' E 008°30'0 0.0
2017-Nov-07 08:59N 53°21' E 008°30'0 0.0
2017-Nov-07 08:29N 53°21' E 008°30'0 0.0
2017-Nov-07 07:59N 53°21' E 008°30'0 0.0
2017-Nov-07 07:29N 53°21' E 008°30'0 0.0
2017-Nov-07 06:59N 53°21' E 008°30'0 0.0
2017-Nov-07 06:29N 53°21' E 008°30'0 0.0
2017-Nov-07 05:59N 53°21' E 008°30'0 0.0
2017-Nov-07 05:29N 53°21' E 008°30'0 0.0
2017-Nov-07 04:59N 53°21' E 008°30'0 0.0
2017-Nov-07 04:29N 53°21' E 008°30'0 0.0
2017-Nov-07 03:59N 53°21' E 008°30'0 0.0
2017-Nov-07 03:29N 53°21' E 008°30'0 0.0
2017-Nov-07 02:59N 53°21' E 008°30'0 0.0
2017-Nov-07 02:26N 53°21' E 008°30'0 0.0
2017-Nov-07 01:59N 53°21' E 008°30'0 0.0
2017-Nov-07 01:29N 53°21' E 008°30'0 0.0
2017-Nov-07 00:59N 53°21' E 008°30'0 0.0
2017-Nov-07 00:29N 53°21' E 008°30'0 0.0
2017-Nov-06 23:59N 53°21' E 008°30'0 0.0
2017-Nov-06 23:29N 53°21' E 008°30'0 0.0
2017-Nov-06 22:58N 53°21' E 008°30'0 0.0
2017-Nov-06 22:28N 53°21' E 008°30'0 0.0
2017-Nov-06 21:58N 53°21' E 008°30'0 0.0
2017-Nov-06 21:29N 53°21' E 008°30'0 0.0
2017-Nov-06 20:58N 53°21' E 008°30'0 0.0
2017-Nov-06 20:28N 53°21' E 008°30'0 0.0
2017-Nov-06 02:28N 53°21' E 008°30'0 0.0
2017-Nov-06 01:58N 53°21' E 008°30'0 0.0
2017-Nov-06 01:28N 53°21' E 008°30'0 0.0
2017-Nov-06 00:55N 53°21' E 008°30'0 0.0
2017-Nov-06 00:28N 53°21' E 008°30'0 0.0
2017-Nov-05 23:55N 53°21' E 008°30'0 0.0
2017-Nov-05 23:28N 53°21' E 008°30'0 0.0
2017-Nov-05 22:58N 53°21' E 008°30'0 0.0
2017-Nov-05 22:28N 53°21' E 008°30'0 0.0
2017-Nov-05 21:58N 53°21' E 008°30'0 0.0
2017-Nov-05 21:28N 53°21' E 008°30'0 0.0
2017-Nov-05 20:58N 53°21' E 008°30'0 0.0
2017-Nov-05 20:28N 53°21' E 008°30'0 0.0
2017-Nov-05 19:58N 53°21' E 008°30'0 0.0
2017-Nov-05 19:28N 53°21' E 008°30'0 0.0
2017-Nov-05 18:58N 53°21' E 008°30'0 0.0
2017-Nov-05 18:28N 53°21' E 008°30'0 0.0
2017-Nov-05 17:58N 53°21' E 008°30'0 0.0
2017-Nov-05 17:28N 53°21' E 008°30'0 0.0
2017-Nov-05 16:58N 53°21' E 008°30'0 0.0
2017-Nov-05 16:25N 53°21' E 008°30'0 0.0
2017-Nov-05 15:58N 53°21' E 008°30'0 0.0
2017-Nov-05 15:28N 53°21' E 008°30'0 0.0
2017-Nov-05 14:58N 53°21' E 008°30'0 0.0
2017-Nov-05 14:28N 53°21' E 008°30'0 0.0
2017-Nov-05 14:01N 53°21' E 008°30'0 0.0
2017-Nov-05 13:31N 53°21' E 008°30'0 0.0
2017-Nov-05 12:58N 53°21' E 008°30'0 0.0
2017-Nov-05 12:31N 53°21' E 008°30'0 0.0
2017-Nov-05 12:00N 53°21' E 008°30'0 0.0
2017-Nov-05 11:30N 53°21' E 008°30'0 0.0
2017-Nov-05 11:00N 53°21' E 008°30'0 0.0
2017-Nov-05 10:30N 53°21' E 008°30'0 0.0
2017-Nov-05 10:00N 53°21' E 008°30'0 0.0
2017-Nov-05 09:30N 53°21' E 008°30'0 0.0
2017-Nov-05 09:00N 53°21' E 008°30'0 0.0
2017-Nov-05 08:30N 53°21' E 008°30'0 0.0
2017-Nov-05 08:00N 53°21' E 008°30'0 0.0
2017-Nov-05 07:30N 53°21' E 008°30'0 0.0
2017-Nov-05 07:00N 53°21' E 008°30'0 0.0
2017-Nov-05 06:30N 53°21' E 008°30'0 0.0
2017-Nov-05 06:00N 53°21' E 008°30'0 0.0
2017-Nov-05 05:30N 53°21' E 008°30'0 0.0
2017-Nov-05 05:00N 53°21' E 008°30'0 0.0
2017-Nov-05 04:30N 53°21' E 008°30'0 0.0
2017-Nov-05 04:00N 53°21' E 008°30'0 0.0
2017-Nov-05 03:30N 53°21' E 008°30'0 0.0
2017-Nov-05 03:00N 53°21' E 008°30'0 0.0
2017-Nov-05 02:30N 53°21' E 008°30'0 0.0
2017-Nov-05 02:00N 53°21' E 008°30'0 0.0
2017-Nov-05 01:30N 53°21' E 008°30'0 0.0
2017-Nov-05 01:00N 53°21' E 008°30'0 0.0
2017-Nov-05 00:30N 53°21' E 008°30'0 0.0
2017-Nov-05 00:00N 53°21' E 008°30'0 0.0
2017-Nov-04 23:30N 53°21' E 008°30'0 0.0
2017-Nov-04 23:00N 53°21' E 008°30'0 0.0
2017-Nov-04 22:30N 53°21' E 008°30'0 0.0
2017-Nov-04 22:00N 53°21' E 008°30'0 0.0
2017-Nov-04 21:30N 53°21' E 008°30'0 0.0
2017-Nov-04 21:00N 53°21' E 008°30'0 0.0
2017-Nov-04 20:30N 53°21' E 008°30'0 0.0
2017-Nov-04 20:00N 53°21' E 008°30'0 0.0
2017-Nov-04 19:30N 53°21' E 008°30'0 0.0
2017-Nov-04 19:00N 53°21' E 008°30'0 0.0
2017-Nov-04 18:30N 53°21' E 008°30'0 0.0
2017-Nov-04 18:00N 53°21' E 008°30'0 0.0
2017-Nov-04 17:30N 53°21' E 008°30'0 0.0
2017-Nov-04 17:00N 53°21' E 008°30'0 0.0
2017-Nov-04 16:30N 53°21' E 008°30'0 0.0
2017-Nov-04 16:00N 53°21' E 008°30'0 0.0
2017-Nov-04 15:27N 53°21' E 008°30'0 0.0
2017-Nov-04 15:00N 53°21' E 008°30'0 0.0
2017-Nov-04 14:30N 53°21' E 008°30'0 0.0
2017-Nov-04 14:00N 53°21' E 008°30'0 0.0
2017-Nov-04 13:30N 53°21' E 008°30'0 0.0
2017-Nov-04 13:00N 53°21' E 008°30'0 0.0
2017-Nov-04 12:30N 53°21' E 008°30'0 0.0
2017-Nov-04 12:00N 53°21' E 008°30'0 0.0
2017-Nov-04 11:30N 53°21' E 008°30'0 0.0
2017-Nov-04 11:00N 53°21' E 008°30'0 0.0
2017-Nov-04 10:30N 53°21' E 008°30'0 0.0
2017-Nov-04 10:00N 53°21' E 008°30'0 0.0
2017-Nov-04 09:30N 53°21' E 008°30'0 0.0
2017-Nov-04 09:00N 53°21' E 008°30'0 0.0
2017-Nov-04 08:27N 53°21' E 008°30'0 0.0
2017-Nov-04 08:00N 53°21' E 008°30'0 0.0
2017-Nov-04 07:30N 53°21' E 008°30'0 0.0
2017-Nov-04 07:00N 53°21' E 008°30'0 0.0
2017-Nov-04 06:27N 53°21' E 008°30'0 0.0
2017-Nov-04 06:00N 53°21' E 008°30'0 0.0
2017-Nov-04 05:30N 53°21' E 008°30'0 0.0
2017-Nov-04 05:00N 53°21' E 008°30'0 0.0
2017-Nov-04 04:30N 53°21' E 008°30'0 0.0
2017-Nov-04 04:00N 53°21' E 008°30'0 0.0
2017-Nov-04 03:30N 53°21' E 008°30'0 0.0
2017-Nov-04 03:00N 53°21' E 008°30'0 0.0
2017-Nov-04 02:30N 53°21' E 008°30'0 0.0
2017-Nov-04 01:59N 53°21' E 008°30'0 0.0
2017-Nov-04 01:29N 53°21' E 008°30'0 0.0
2017-Nov-04 00:59N 53°21' E 008°30'0 0.0
2017-Nov-04 00:30N 53°21' E 008°30'0 0.0
2017-Nov-04 00:00N 53°21' E 008°30'0 0.0
2017-Nov-03 23:29N 53°21' E 008°30'0 0.0
2017-Nov-03 22:59N 53°21' E 008°30'0 0.0
2017-Nov-03 22:29N 53°21' E 008°30'0 0.0
2017-Nov-03 21:59N 53°21' E 008°30'0 0.0
2017-Nov-03 21:29N 53°21' E 008°30'0 0.0
2017-Nov-03 20:59N 53°21' E 008°30'0 0.0
2017-Nov-03 20:29N 53°21' E 008°30'0 0.0
2017-Nov-03 19:59N 53°21' E 008°30'0 0.0
2017-Nov-03 19:29N 53°21' E 008°30'0 0.0
2017-Nov-03 18:59N 53°21' E 008°30'0 0.1
2017-Nov-03 18:30N 53°22' E 008°30'1 2.6
2017-Nov-03 18:01N 53°23' E 008°30'4 8.8
2017-Nov-03 17:30N 53°27' E 008°29'4 8.3
2017-Nov-03 17:00N 53°31' E 008°32'3 6.7
2017-Nov-03 16:30N 53°34' E 008°32'5 9.6
2017-Nov-03 16:00N 53°38' E 008°27'510.2
2017-Nov-03 15:30N 53°41' E 008°20'510.7
2017-Nov-03 15:00N 53°44' E 008°13'510.0
2017-Nov-03 14:30N 53°48' E 008°08'510.5
2017-Nov-03 14:00N 53°51' E 008°00'611.4
2017-Nov-03 13:29N 53°52' E 007°50'610.7
2017-Nov-03 12:58N 53°54' E 007°41'510.3
2017-Nov-03 12:30N 53°58' E 007°37'5813.0
2017-Nov-03 08:03N 54°07' E 005°60'20913.8
2017-Nov-02 16:52N 53°32' E 000°10'410.3
2017-Nov-02 16:30N 53°34' E 000°04'612.1
2017-Nov-02 16:00N 53°37' W 000°05'4 8.5
2017-Nov-02 15:30N 53°38' W 000°11'0 0.4
2017-Nov-02 14:59N 53°38' W 000°12'0 0.0
2017-Nov-02 14:29N 53°38' W 000°12'0 0.0
2017-Nov-02 13:59N 53°38' W 000°12'0 0.0
2017-Nov-02 13:23N 53°38' W 000°12'0 0.0
2017-Nov-02 12:56N 53°38' W 000°12'0 0.0
2017-Nov-02 12:29N 53°38' W 000°12'0 0.0
2017-Nov-02 11:59N 53°38' W 000°12'0 0.0
2017-Nov-02 11:29N 53°38' W 000°12'0 0.0
2017-Nov-02 10:59N 53°38' W 000°12'0 0.0
2017-Nov-02 10:29N 53°38' W 000°12'0 0.0
2017-Nov-02 09:59N 53°38' W 000°12'0 0.0
2017-Nov-02 09:29N 53°38' W 000°12'0 0.0
2017-Nov-02 08:59N 53°38' W 000°12'0 0.0
2017-Nov-02 08:29N 53°38' W 000°12'0 0.0
2017-Nov-02 07:59N 53°38' W 000°12'0 0.0
2017-Nov-02 06:50N 53°38' W 000°12'0 0.0
2017-Nov-02 06:14N 53°38' W 000°12'0 0.0
2017-Nov-02 05:59N 53°38' W 000°12'0 0.0
2017-Nov-02 05:20N 53°38' W 000°12'0 0.0
2017-Nov-02 04:56N 53°38' W 000°12'0 0.0
2017-Nov-02 04:26N 53°38' W 000°12'0 0.0
2017-Nov-02 03:38N 53°38' W 000°12'0 0.0
2017-Nov-02 03:29N 53°38' W 000°12'0 0.0
2017-Nov-02 02:56N 53°38' W 000°12'0 0.0
2017-Nov-02 02:26N 53°38' W 000°12'0 0.0
2017-Nov-02 01:50N 53°38' W 000°12'0 0.0
2017-Nov-02 01:29N 53°38' W 000°12'0 0.0
2017-Nov-02 00:44N 53°38' W 000°12'0 0.0
2017-Nov-02 00:20N 53°38' W 000°12'0 0.0
2017-Nov-01 23:59N 53°38' W 000°12'0 0.0
2017-Nov-01 23:26N 53°38' W 000°12'0 0.0
2017-Nov-01 22:59N 53°38' W 000°12'0 0.0
2017-Nov-01 22:26N 53°38' W 000°12'0 0.0
2017-Nov-01 21:56N 53°38' W 000°12'0 0.0
2017-Nov-01 21:23N 53°38' W 000°12'0 0.0
2017-Nov-01 20:53N 53°38' W 000°12'0 0.0
2017-Nov-01 20:26N 53°38' W 000°12'0 0.0
2017-Nov-01 19:59N 53°38' W 000°12'0 0.0
2017-Nov-01 19:20N 53°38' W 000°12'0 0.0
2017-Nov-01 18:59N 53°38' W 000°12'0 0.0
2017-Nov-01 18:29N 53°38' W 000°12'0 0.0
2017-Nov-01 01:55N 53°38' W 000°12'0 0.0
2017-Nov-01 01:28N 53°38' W 000°12'0 0.0
2017-Nov-01 00:55N 53°38' W 000°12'0 0.0
2017-Nov-01 00:28N 53°38' W 000°12'0 0.0
2017-Oct-31 23:49N 53°38' W 000°12'0 0.0
2017-Oct-31 23:25N 53°38' W 000°12'0 0.0
2017-Oct-31 22:58N 53°38' W 000°12'0 0.0
2017-Oct-31 22:28N 53°38' W 000°12'0 0.0
2017-Oct-31 21:55N 53°38' W 000°12'0 0.0
2017-Oct-31 21:22N 53°38' W 000°12'0 0.0
2017-Oct-31 20:52N 53°38' W 000°12'0 0.0
2017-Oct-31 20:25N 53°38' W 000°12'0 0.0
2017-Oct-31 19:58N 53°38' W 000°12'0 0.0
2017-Oct-31 19:28N 53°38' W 000°12'0 0.0
2017-Oct-31 18:55N 53°38' W 000°12'0 0.0
2017-Oct-31 18:22N 53°38' W 000°12'0 0.0
2017-Oct-31 17:58N 53°38' W 000°12'0 0.0
2017-Oct-31 17:25N 53°38' W 000°12'0 0.0
2017-Oct-31 16:58N 53°38' W 000°12'0 0.0
2017-Oct-31 16:28N 53°38' W 000°12'0 0.0
2017-Oct-31 15:58N 53°38' W 000°12'0 0.0
2017-Oct-31 15:25N 53°38' W 000°12'0 0.0
2017-Oct-31 14:55N 53°38' W 000°12'0 0.0
2017-Oct-31 14:28N 53°38' W 000°12'0 0.0
2017-Oct-31 13:58N 53°38' W 000°12'0 0.0
2017-Oct-31 13:25N 53°38' W 000°12'  
Track history (hours):
 
Tides and Currents Weather Stations Pressure Air Temp Water Temp Dewpoint Dewpoint Depression Visibility Wind Speed Wind Dir Waves Ship Positions

Federal Leda

Last reported at 2017-Nov-10 13:05 UTC. Time now 2017-Dec-11 20:41 UTC.
Position N 49°37' W 004°35'.
Warning: this ship's position is 31 days out of date.

Length 200 m; draft 6.9 m.

Type: Cargo ship. MMSI: 538005611.

Date/timePositionNaut miles runAvg speedWind from/ knotsBaromVisibWave heightAir tempDewpointWater temp
2017-Nov-10 13:05N 49°37' W 004°35'3211.3
2017-Nov-10 10:13N 49°47' W 003°48'812.1
2017-Nov-10 09:35N 49°49' W 003°36'112.1
2017-Nov-10 09:29N 49°49' W 003°35'612.3
2017-Nov-10 09:00N 49°51' W 003°26'612.6
2017-Nov-10 08:30N 49°53' W 003°17'613.0
2017-Nov-10 08:01N 49°55' W 003°07'713.4
2017-Nov-10 07:30N 49°58' W 002°57'713.9
2017-Nov-10 07:00N 50°00' W 002°47'714.5
2017-Nov-10 06:30N 50°03' W 002°37'2015.4
2017-Nov-10 05:14N 50°09' W 002°08'415.6
2017-Nov-10 05:00N 50°10' W 002°02'815.4
2017-Nov-10 04:31N 50°12' W 001°51'714.9
2017-Nov-10 04:00N 50°13' W 001°39'714.4
2017-Nov-10 03:30N 50°15' W 001°28'713.6
2017-Nov-10 03:00N 50°17' W 001°18'3511.9
2017-Nov-10 00:04N 50°26' W 000°25'111.9
2017-Nov-09 23:59N 50°27' W 000°24'612.2
2017-Nov-09 23:31N 50°28' W 000°15'612.8
2017-Nov-09 23:01N 50°30' W 000°05'713.3
2017-Nov-09 22:30N 50°31' E 000°05'714.1
2017-Nov-09 22:00N 50°33' E 000°16'714.6
2017-Nov-09 21:31N 50°35' E 000°27'714.9
2017-Nov-09 21:01N 50°38' E 000°37'815.5
2017-Nov-09 20:31N 50°43' E 000°47'815.5
2017-Nov-09 20:01N 50°48' E 000°57'815.0
2017-Nov-09 19:31N 50°53' E 001°06'714.5
2017-Nov-09 19:01N 50°57' E 001°14'714.0
2017-Nov-09 18:30N 51°02' E 001°23'713.2
2017-Nov-09 18:00N 51°06' E 001°30'612.1
2017-Nov-09 17:30N 51°10' E 001°38'611.8
2017-Nov-09 17:00N 51°14' E 001°45'611.9
2017-Nov-09 16:30N 51°19' E 001°50'612.1
2017-Nov-09 16:00N 51°24' E 001°56'612.6
2017-Nov-09 15:30N 51°29' E 002°02'713.2
2017-Nov-09 15:00N 51°34' E 002°09'713.7
2017-Nov-09 14:30N 51°39' E 002°16'6515.0
2017-Nov-09 10:09N 52°30' E 003°22'213.8
2017-Nov-09 10:00N 52°32' E 003°24'813.7
2017-Nov-09 09:26N 52°38' E 003°32'613.3
2017-Nov-09 08:59N 52°42' E 003°38'713.1
2017-Nov-09 08:29N 52°48' E 003°45'612.8
2017-Nov-09 08:00N 52°53' E 003°51'612.8
2017-Nov-09 07:30N 52°57' E 003°59'612.7
2017-Nov-09 07:00N 53°01' E 004°07'712.8
2017-Nov-09 06:29N 53°05' E 004°15'712.9
2017-Nov-09 05:57N 53°10' E 004°24'1413.9
2017-Nov-09 04:56N 53°23' E 004°33'3914.3
2017-Nov-09 02:13N 53°40' E 005°31'8312.6
2017-Nov-08 19:39N 53°53' E 007°50'210.5
2017-Nov-08 19:30N 53°52' E 007°52'714.2
2017-Nov-08 19:00N 53°50' E 008°04'815.5
2017-Nov-08 18:30N 53°45' E 008°13'815.8
2017-Nov-08 18:00N 53°40' E 008°23'714.9
2017-Nov-08 17:30N 53°34' E 008°32'4 7.3
2017-Nov-08 17:00N 53°31' E 008°32'510.7
2017-Nov-08 16:30N 53°26' E 008°30'4 8.6
2017-Nov-08 16:01N 53°21' E 008°30'0 0.3
2017-Nov-08 15:30N 53°21' E 008°30'0 0.0
2017-Nov-08 15:00N 53°21' E 008°30'0 0.0
2017-Nov-08 14:27N 53°21' E 008°30'0 0.0
2017-Nov-08 14:00N 53°21' E 008°30'0 0.0
2017-Nov-08 13:30N 53°21' E 008°30'0 0.0
2017-Nov-08 13:00N 53°21' E 008°30'0 0.0
2017-Nov-08 12:30N 53°21' E 008°30'0 0.0
2017-Nov-08 12:00N 53°21' E 008°30'0 0.0
2017-Nov-08 11:27N 53°21' E 008°30'0 0.0
2017-Nov-08 11:00N 53°21' E 008°30'0 0.0
2017-Nov-08 10:30N 53°21' E 008°30'0 0.0
2017-Nov-08 10:00N 53°21' E 008°30'0 0.0
2017-Nov-08 09:30N 53°21' E 008°30'0 0.0
2017-Nov-08 09:00N 53°21' E 008°30'0 0.0
2017-Nov-08 08:29N 53°21' E 008°30'0 0.0
2017-Nov-08 07:59N 53°21' E 008°30'0 0.0
2017-Nov-08 07:29N 53°21' E 008°30'0 0.0
2017-Nov-08 06:59N 53°21' E 008°30'0 0.0
2017-Nov-08 06:29N 53°21' E 008°30'0 0.0
2017-Nov-08 05:59N 53°21' E 008°30'0 0.0
2017-Nov-08 05:29N 53°21' E 008°30'0 0.0
2017-Nov-08 04:59N 53°21' E 008°30'0 0.0
2017-Nov-08 04:29N 53°21' E 008°30'0 0.0
2017-Nov-08 03:59N 53°21' E 008°30'0 0.0
2017-Nov-08 03:29N 53°21' E 008°30'0 0.0
2017-Nov-08 02:59N 53°21' E 008°30'0 0.0
2017-Nov-08 02:26N 53°21' E 008°30'0 0.0
2017-Nov-08 01:59N 53°21' E 008°30'0 0.0
2017-Nov-08 01:29N 53°21' E 008°30'0 0.0
2017-Nov-08 00:59N 53°21' E 008°30'0 0.0
2017-Nov-08 00:29N 53°21' E 008°30'0 0.0
2017-Nov-07 23:59N 53°21' E 008°30'0 0.0
2017-Nov-07 23:29N 53°21' E 008°30'0 0.0
2017-Nov-07 22:59N 53°21' E 008°30'0 0.0
2017-Nov-07 22:29N 53°21' E 008°30'0 0.0
2017-Nov-07 21:59N 53°21' E 008°30'0 0.0
2017-Nov-07 21:29N 53°21' E 008°30'0 0.0
2017-Nov-07 20:59N 53°21' E 008°30'0 0.0
2017-Nov-07 20:29N 53°21' E 008°30'0 0.0
2017-Nov-07 19:59N 53°21' E 008°30'0 0.0
2017-Nov-07 19:29N 53°21' E 008°30'0 0.0
2017-Nov-07 18:59N 53°21' E 008°30'0 0.0
2017-Nov-07 18:29N 53°21' E 008°30'0 0.0
2017-Nov-07 17:59N 53°21' E 008°30'0 0.0
2017-Nov-07 17:29N 53°21' E 008°30'0 0.0
2017-Nov-07 16:59N 53°21' E 008°30'0 0.0
2017-Nov-07 16:26N 53°21' E 008°30'0 0.0
2017-Nov-07 15:59N 53°21' E 008°30'0 0.0
2017-Nov-07 15:20N 53°21' E 008°30'0 0.0
2017-Nov-07 14:59N 53°21' E 008°30'0 0.0
2017-Nov-07 14:23N 53°21' E 008°30'0 0.0
2017-Nov-07 13:59N 53°21' E 008°30'0 0.0
2017-Nov-07 13:29N 53°21' E 008°30'0 0.0
2017-Nov-07 12:59N 53°21' E 008°30'0 0.0
2017-Nov-07 12:29N 53°21' E 008°30'0 0.0
2017-Nov-07 11:59N 53°21' E 008°30'0 0.0
2017-Nov-07 11:29N 53°21' E 008°30'0 0.0
2017-Nov-07 10:59N 53°21' E 008°30'0 0.0
2017-Nov-07 10:29N 53°21' E 008°30'0 0.0
2017-Nov-07 09:59N 53°21' E 008°30'0 0.0
2017-Nov-07 09:29N 53°21' E 008°30'0 0.0
2017-Nov-07 08:59N 53°21' E 008°30'0 0.0
2017-Nov-07 08:29N 53°21' E 008°30'0 0.0
2017-Nov-07 07:59N 53°21' E 008°30'0 0.0
2017-Nov-07 07:29N 53°21' E 008°30'0 0.0
2017-Nov-07 06:59N 53°21' E 008°30'0 0.0
2017-Nov-07 06:29N 53°21' E 008°30'0 0.0
2017-Nov-07 05:59N 53°21' E 008°30'0 0.0
2017-Nov-07 05:29N 53°21' E 008°30'0 0.0
2017-Nov-07 04:59N 53°21' E 008°30'0 0.0
2017-Nov-07 04:29N 53°21' E 008°30'0 0.0
2017-Nov-07 03:59N 53°21' E 008°30'0 0.0
2017-Nov-07 03:29N 53°21' E 008°30'0 0.0
2017-Nov-07 02:59N 53°21' E 008°30'0 0.0
2017-Nov-07 02:26N 53°21' E 008°30'0 0.0
2017-Nov-07 01:59N 53°21' E 008°30'0 0.0
2017-Nov-07 01:29N 53°21' E 008°30'0 0.0
2017-Nov-07 00:59N 53°21' E 008°30'0 0.0
2017-Nov-07 00:29N 53°21' E 008°30'0 0.0
2017-Nov-06 23:59N 53°21' E 008°30'0 0.0
2017-Nov-06 23:29N 53°21' E 008°30'0 0.0
2017-Nov-06 22:58N 53°21' E 008°30'0 0.0
2017-Nov-06 22:28N 53°21' E 008°30'0 0.0
2017-Nov-06 21:58N 53°21' E 008°30'0 0.0
2017-Nov-06 21:29N 53°21' E 008°30'0 0.0
2017-Nov-06 20:58N 53°21' E 008°30'0 0.0
2017-Nov-06 20:28N 53°21' E 008°30'0 0.0
2017-Nov-06 02:28N 53°21' E 008°30'0 0.0
2017-Nov-06 01:58N 53°21' E 008°30'0 0.0
2017-Nov-06 01:28N 53°21' E 008°30'0 0.0
2017-Nov-06 00:55N 53°21' E 008°30'0 0.0
2017-Nov-06 00:28N 53°21' E 008°30'0 0.0
2017-Nov-05 23:55N 53°21' E 008°30'0 0.0
2017-Nov-05 23:28N 53°21' E 008°30'0 0.0
2017-Nov-05 22:58N 53°21' E 008°30'0 0.0
2017-Nov-05 22:28N 53°21' E 008°30'0 0.0
2017-Nov-05 21:58N 53°21' E 008°30'0 0.0
2017-Nov-05 21:28N 53°21' E 008°30'0 0.0
2017-Nov-05 20:58N 53°21' E 008°30'0 0.0
2017-Nov-05 20:28N 53°21' E 008°30'0 0.0
2017-Nov-05 19:58N 53°21' E 008°30'0 0.0
2017-Nov-05 19:28N 53°21' E 008°30'0 0.0
2017-Nov-05 18:58N 53°21' E 008°30'0 0.0
2017-Nov-05 18:28N 53°21' E 008°30'0 0.0
2017-Nov-05 17:58N 53°21' E 008°30'0 0.0
2017-Nov-05 17:28N 53°21' E 008°30'0 0.0
2017-Nov-05 16:58N 53°21' E 008°30'0 0.0
2017-Nov-05 16:25N 53°21' E 008°30'0 0.0
2017-Nov-05 15:58N 53°21' E 008°30'0 0.0
2017-Nov-05 15:28N 53°21' E 008°30'0 0.0
2017-Nov-05 14:58N 53°21' E 008°30'0 0.0
2017-Nov-05 14:28N 53°21' E 008°30'0 0.0
2017-Nov-05 14:01N 53°21' E 008°30'0 0.0
2017-Nov-05 13:31N 53°21' E 008°30'0 0.0
2017-Nov-05 12:58N 53°21' E 008°30'0 0.0
2017-Nov-05 12:31N 53°21' E 008°30'0 0.0
2017-Nov-05 12:00N 53°21' E 008°30'0 0.0
2017-Nov-05 11:30N 53°21' E 008°30'0 0.0
2017-Nov-05 11:00N 53°21' E 008°30'0 0.0
2017-Nov-05 10:30N 53°21' E 008°30'0 0.0
2017-Nov-05 10:00N 53°21' E 008°30'0 0.0
2017-Nov-05 09:30N 53°21' E 008°30'0 0.0
2017-Nov-05 09:00N 53°21' E 008°30'0 0.0
2017-Nov-05 08:30N 53°21' E 008°30'0 0.0
2017-Nov-05 08:00N 53°21' E 008°30'0 0.0
2017-Nov-05 07:30N 53°21' E 008°30'0 0.0
2017-Nov-05 07:00N 53°21' E 008°30'0 0.0
2017-Nov-05 06:30N 53°21' E 008°30'0 0.0
2017-Nov-05 06:00N 53°21' E 008°30'0 0.0
2017-Nov-05 05:30N 53°21' E 008°30'0 0.0
2017-Nov-05 05:00N 53°21' E 008°30'0 0.0
2017-Nov-05 04:30N 53°21' E 008°30'0 0.0
2017-Nov-05 04:00N 53°21' E 008°30'0 0.0
2017-Nov-05 03:30N 53°21' E 008°30'0 0.0
2017-Nov-05 03:00N 53°21' E 008°30'0 0.0
2017-Nov-05 02:30N 53°21' E 008°30'0 0.0
2017-Nov-05 02:00N 53°21' E 008°30'0 0.0
2017-Nov-05 01:30N 53°21' E 008°30'0 0.0
2017-Nov-05 01:00N 53°21' E 008°30'0 0.0
2017-Nov-05 00:30N 53°21' E 008°30'0 0.0
2017-Nov-05 00:00N 53°21' E 008°30'0 0.0
2017-Nov-04 23:30N 53°21' E 008°30'0 0.0
2017-Nov-04 23:00N 53°21' E 008°30'0 0.0
2017-Nov-04 22:30N 53°21' E 008°30'0 0.0
2017-Nov-04 22:00N 53°21' E 008°30'0 0.0
2017-Nov-04 21:30N 53°21' E 008°30'0 0.0
2017-Nov-04 21:00N 53°21' E 008°30'0 0.0
2017-Nov-04 20:30N 53°21' E 008°30'0 0.0
2017-Nov-04 20:00N 53°21' E 008°30'0 0.0
2017-Nov-04 19:30N 53°21' E 008°30'0 0.0
2017-Nov-04 19:00N 53°21' E 008°30'0 0.0
2017-Nov-04 18:30N 53°21' E 008°30'0 0.0
2017-Nov-04 18:00N 53°21' E 008°30'0 0.0
2017-Nov-04 17:30N 53°21' E 008°30'0 0.0
2017-Nov-04 17:00N 53°21' E 008°30'0 0.0
2017-Nov-04 16:30N 53°21' E 008°30'0 0.0
2017-Nov-04 16:00N 53°21' E 008°30'0 0.0
2017-Nov-04 15:27N 53°21' E 008°30'0 0.0
2017-Nov-04 15:00N 53°21' E 008°30'0 0.0
2017-Nov-04 14:30N 53°21' E 008°30'0 0.0
2017-Nov-04 14:00N 53°21' E 008°30'0 0.0
2017-Nov-04 13:30N 53°21' E 008°30'0 0.0
2017-Nov-04 13:00N 53°21' E 008°30'0 0.0
2017-Nov-04 12:30N 53°21' E 008°30'0 0.0
2017-Nov-04 12:00N 53°21' E 008°30'0 0.0
2017-Nov-04 11:30N 53°21' E 008°30'0 0.0
2017-Nov-04 11:00N 53°21' E 008°30'0 0.0
2017-Nov-04 10:30N 53°21' E 008°30'0 0.0
2017-Nov-04 10:00N 53°21' E 008°30'0 0.0
2017-Nov-04 09:30N 53°21' E 008°30'0 0.0
2017-Nov-04 09:00N 53°21' E 008°30'0 0.0
2017-Nov-04 08:27N 53°21' E 008°30'0 0.0
2017-Nov-04 08:00N 53°21' E 008°30'0 0.0
2017-Nov-04 07:30N 53°21' E 008°30'0 0.0
2017-Nov-04 07:00N 53°21' E 008°30'0 0.0
2017-Nov-04 06:27N 53°21' E 008°30'0 0.0
2017-Nov-04 06:00N 53°21' E 008°30'0 0.0
2017-Nov-04 05:30N 53°21' E 008°30'0 0.0
2017-Nov-04 05:00N 53°21' E 008°30'0 0.0
2017-Nov-04 04:30N 53°21' E 008°30'0 0.0
2017-Nov-04 04:00N 53°21' E 008°30'0 0.0
2017-Nov-04 03:30N 53°21' E 008°30'0 0.0
2017-Nov-04 03:00N 53°21' E 008°30'0 0.0
2017-Nov-04 02:30N 53°21' E 008°30'0 0.0
2017-Nov-04 01:59N 53°21' E 008°30'0 0.0
2017-Nov-04 01:29N 53°21' E 008°30'0 0.0
2017-Nov-04 00:59N 53°21' E 008°30'0 0.0
2017-Nov-04 00:30N 53°21' E 008°30'0 0.0
2017-Nov-04 00:00N 53°21' E 008°30'0 0.0
2017-Nov-03 23:29N 53°21' E 008°30'0 0.0
2017-Nov-03 22:59N 53°21' E 008°30'0 0.0
2017-Nov-03 22:29N 53°21' E 008°30'0 0.0
2017-Nov-03 21:59N 53°21' E 008°30'0 0.0
2017-Nov-03 21:29N 53°21' E 008°30'0 0.0
2017-Nov-03 20:59N 53°21' E 008°30'0 0.0
2017-Nov-03 20:29N 53°21' E 008°30'0 0.0
2017-Nov-03 19:59N 53°21' E 008°30'0 0.0
2017-Nov-03 19:29N 53°21' E 008°30'0 0.0
2017-Nov-03 18:59N 53°21' E 008°30'0 0.1
2017-Nov-03 18:30N 53°22' E 008°30'1 2.6
2017-Nov-03 18:01N 53°23' E 008°30'4 8.8
2017-Nov-03 17:30N 53°27' E 008°29'4 8.3
2017-Nov-03 17:00N 53°31' E 008°32'3 6.7
2017-Nov-03 16:30N 53°34' E 008°32'5 9.6
2017-Nov-03 16:00N 53°38' E 008°27'510.2
2017-Nov-03 15:30N 53°41' E 008°20'510.7
2017-Nov-03 15:00N 53°44' E 008°13'510.0
2017-Nov-03 14:30N 53°48' E 008°08'510.5
2017-Nov-03 14:00N 53°51' E 008°00'611.4
2017-Nov-03 13:29N 53°52' E 007°50'610.7
2017-Nov-03 12:58N 53°54' E 007°41'510.3
2017-Nov-03 12:30N 53°58' E 007°37'5813.0
2017-Nov-03 08:03N 54°07' E 005°60'20913.8
2017-Nov-02 16:52N 53°32' E 000°10'410.3
2017-Nov-02 16:30N 53°34' E 000°04'612.1
2017-Nov-02 16:00N 53°37' W 000°05'4 8.5
2017-Nov-02 15:30N 53°38' W 000°11'0 0.4
2017-Nov-02 14:59N 53°38' W 000°12'0 0.0
2017-Nov-02 14:29N 53°38' W 000°12'0 0.0
2017-Nov-02 13:59N 53°38' W 000°12'0 0.0
2017-Nov-02 13:23N 53°38' W 000°12'0 0.0
2017-Nov-02 12:56N 53°38' W 000°12'0 0.0
2017-Nov-02 12:29N 53°38' W 000°12'0 0.0
2017-Nov-02 11:59N 53°38' W 000°12'0 0.0
2017-Nov-02 11:29N 53°38' W 000°12'0 0.0
2017-Nov-02 10:59N 53°38' W 000°12'0 0.0
2017-Nov-02 10:29N 53°38' W 000°12'0 0.0
2017-Nov-02 09:59N 53°38' W 000°12'0 0.0
2017-Nov-02 09:29N 53°38' W 000°12'0 0.0
2017-Nov-02 08:59N 53°38' W 000°12'0 0.0
2017-Nov-02 08:29N 53°38' W 000°12'0 0.0
2017-Nov-02 07:59N 53°38' W 000°12'0 0.0
2017-Nov-02 06:50N 53°38' W 000°12'0 0.0
2017-Nov-02 06:14N 53°38' W 000°12'0 0.0
2017-Nov-02 05:59N 53°38' W 000°12'0 0.0
2017-Nov-02 05:20N 53°38' W 000°12'0 0.0
2017-Nov-02 04:56N 53°38' W 000°12'0 0.0
2017-Nov-02 04:26N 53°38' W 000°12'0 0.0
2017-Nov-02 03:38N 53°38' W 000°12'0 0.0
2017-Nov-02 03:29N 53°38' W 000°12'0 0.0
2017-Nov-02 02:56N 53°38' W 000°12'0 0.0
2017-Nov-02 02:26N 53°38' W 000°12'0 0.0
2017-Nov-02 01:50N 53°38' W 000°12'0 0.0
2017-Nov-02 01:29N 53°38' W 000°12'0 0.0
2017-Nov-02 00:44N 53°38' W 000°12'0 0.0
2017-Nov-02 00:20N 53°38' W 000°12'0 0.0
2017-Nov-01 23:59N 53°38' W 000°12'0 0.0
2017-Nov-01 23:26N 53°38' W 000°12'0 0.0
2017-Nov-01 22:59N 53°38' W 000°12'0 0.0
2017-Nov-01 22:26N 53°38' W 000°12'0 0.0
2017-Nov-01 21:56N 53°38' W 000°12'0 0.0
2017-Nov-01 21:23N 53°38' W 000°12'0 0.0
2017-Nov-01 20:53N 53°38' W 000°12'0 0.0
2017-Nov-01 20:26N 53°38' W 000°12'0 0.0
2017-Nov-01 19:59N 53°38' W 000°12'0 0.0
2017-Nov-01 19:20N 53°38' W 000°12'0 0.0
2017-Nov-01 18:59N 53°38' W 000°12'0 0.0
2017-Nov-01 18:29N 53°38' W 000°12'0 0.0
2017-Nov-01 01:55N 53°38' W 000°12'0 0.0
2017-Nov-01 01:28N 53°38' W 000°12'0 0.0
2017-Nov-01 00:55N 53°38' W 000°12'0 0.0
2017-Nov-01 00:28N 53°38' W 000°12'0 0.0
2017-Oct-31 23:49N 53°38' W 000°12'0 0.0
2017-Oct-31 23:25N 53°38' W 000°12'0 0.0
2017-Oct-31 22:58N 53°38' W 000°12'0 0.0
2017-Oct-31 22:28N 53°38' W 000°12'0 0.0
2017-Oct-31 21:55N 53°38' W 000°12'0 0.0
2017-Oct-31 21:22N 53°38' W 000°12'0 0.0
2017-Oct-31 20:52N 53°38' W 000°12'0 0.0
2017-Oct-31 20:25N 53°38' W 000°12'0 0.0
2017-Oct-31 19:58N 53°38' W 000°12'0 0.0
2017-Oct-31 19:28N 53°38' W 000°12'0 0.0
2017-Oct-31 18:55N 53°38' W 000°12'0 0.0
2017-Oct-31 18:22N 53°38' W 000°12'0 0.0
2017-Oct-31 17:58N 53°38' W 000°12'0 0.0
2017-Oct-31 17:25N 53°38' W 000°12'0 0.0
2017-Oct-31 16:58N 53°38' W 000°12'0 0.0
2017-Oct-31 16:28N 53°38' W 000°12'0 0.0
2017-Oct-31 15:58N 53°38' W 000°12'0 0.0
2017-Oct-31 15:25N 53°38' W 000°12'0 0.0
2017-Oct-31 14:55N 53°38' W 000°12'0 0.0
2017-Oct-31 14:28N 53°38' W 000°12'0 0.0
2017-Oct-31 13:58N 53°38' W 000°12'0 0.0
2017-Oct-31 13:25N 53°38' W 000°12'  

Dump ship's entire track history